createdAt,value
2023-03-17T00:01:38.535Z,6.10
2023-03-17T00:04:41.815Z,6.50
2023-03-17T00:07:47.489Z,6.07
2023-03-17T00:10:50.629Z,6.83
2023-03-17T00:13:53.824Z,6.43
2023-03-17T00:16:56.949Z,6.37
2023-03-17T00:19:59.947Z,6.17
2023-03-17T00:23:04.814Z,5.87
2023-03-17T00:26:08.648Z,6.27
2023-03-17T00:29:12.126Z,7.07
2023-03-17T00:32:18.783Z,7.33
2023-03-17T00:35:25.037Z,6.07
2023-03-17T00:38:29.729Z,5.30
2023-03-17T00:41:34.484Z,6.37
2023-03-17T00:44:38.054Z,6.83
2023-03-17T00:47:41.425Z,6.17
2023-03-17T00:50:45.904Z,6.57
2023-03-17T00:53:50.419Z,6.30
2023-03-17T00:56:53.733Z,6.20
2023-03-17T00:59:56.927Z,6.50
2023-03-17T01:02:59.922Z,6.53
2023-03-17T01:06:06.091Z,5.93
2023-03-17T01:09:14.819Z,7.00
2023-03-17T01:12:18.272Z,6.73
2023-03-17T01:15:23.135Z,6.70
2023-03-17T01:18:27.598Z,6.47
2023-03-17T01:21:31.161Z,6.53
2023-03-17T01:24:35.513Z,6.73
2023-03-17T01:27:40.280Z,6.63
2023-03-17T01:30:43.654Z,6.53
2023-03-17T01:33:47.503Z,7.17
2023-03-17T01:36:51.658Z,7.67
2023-03-17T01:39:56.573Z,7.90
2023-03-17T01:43:05.639Z,7.70
2023-03-17T01:46:29.251Z,7.17
2023-03-17T01:49:36.727Z,7.60
2023-03-17T01:52:41.506Z,7.30
2023-03-17T01:55:47.079Z,7.27
2023-03-17T01:58:53.897Z,7.40
2023-03-17T02:02:05.268Z,7.30
2023-03-17T02:05:11.541Z,8.40
2023-03-17T02:08:17.789Z,7.23
2023-03-17T02:11:22.493Z,7.97
2023-03-17T02:14:25.620Z,7.40
2023-03-17T02:17:29.788Z,7.90
2023-03-17T02:21:25.212Z,7.70
2023-03-17T02:24:34.581Z,7.50
2023-03-17T02:27:41.962Z,7.50
2023-03-17T02:30:45.744Z,7.30
2023-03-17T02:33:52.131Z,6.97
2023-03-17T02:36:55.332Z,6.83
2023-03-17T02:40:01.111Z,7.57
2023-03-17T02:43:05.610Z,8.30
2023-03-17T02:46:09.862Z,7.20
2023-03-17T02:49:13.799Z,8.03
2023-03-17T02:52:17.232Z,8.00
2023-03-17T02:55:22.217Z,7.67
2023-03-17T02:58:25.814Z,7.30
2023-03-17T03:01:29.373Z,6.83
2023-03-17T03:04:32.630Z,7.43
2023-03-17T03:07:38.632Z,7.03
2023-03-17T03:10:43.524Z,7.73
2023-03-17T03:13:46.970Z,8.53
2023-03-17T03:16:50.262Z,7.97
2023-03-17T03:19:53.729Z,8.00
2023-03-17T03:22:56.898Z,7.53
2023-03-17T03:26:01.304Z,8.40
2023-03-17T03:29:05.326Z,8.00
2023-03-17T03:32:10.396Z,6.70
2023-03-17T03:35:13.434Z,6.77
2023-03-17T03:38:16.482Z,7.87
2023-03-17T03:41:21.315Z,6.97
2023-03-17T03:44:24.760Z,7.43
2023-03-17T03:47:27.701Z,7.67
2023-03-17T03:50:31.334Z,7.10
2023-03-17T03:53:34.703Z,7.43
2023-03-17T03:56:39.003Z,7.53
2023-03-17T03:59:42.381Z,7.20
2023-03-17T04:02:46.759Z,7.27
2023-03-17T04:05:49.986Z,7.40
2023-03-17T04:08:53.062Z,7.60
2023-03-17T04:11:57.379Z,7.07
2023-03-17T04:15:00.780Z,7.63
2023-03-17T04:18:05.510Z,7.07
2023-03-17T04:21:09.182Z,6.83
2023-03-17T04:24:12.513Z,7.13
2023-03-17T04:27:17.465Z,7.57
2023-03-17T04:30:20.664Z,7.40
2023-03-17T04:33:23.626Z,7.53
2023-03-17T04:36:27.039Z,8.37
2023-03-17T04:39:30.402Z,7.67
2023-03-17T04:42:34.660Z,7.80
2023-03-17T04:45:37.993Z,7.70
2023-03-17T04:48:41.428Z,7.60
2023-03-17T04:51:44.359Z,6.90
2023-03-17T04:54:47.759Z,7.97
2023-03-17T04:57:52.279Z,7.43
2023-03-17T05:00:55.718Z,7.77
2023-03-17T05:03:58.833Z,7.60
2023-03-17T05:07:02.834Z,6.40
2023-03-17T05:10:07.440Z,7.10
2023-03-17T05:13:11.758Z,7.20
2023-03-17T05:16:14.896Z,7.83
2023-03-17T05:19:19.165Z,7.37
2023-03-17T05:22:22.109Z,8.13
2023-03-17T05:25:25.321Z,7.47
2023-03-17T05:28:29.662Z,7.40
2023-03-17T05:31:33.074Z,6.93
2023-03-17T05:34:36.063Z,7.93
2023-03-17T05:37:39.010Z,8.07
2023-03-17T05:40:42.692Z,7.00
2023-03-17T05:43:47.255Z,7.23
2023-03-17T05:46:50.221Z,7.47
2023-03-17T05:49:54.027Z,8.20
2023-03-17T05:52:57.053Z,6.30
2023-03-17T05:56:00.167Z,7.00
2023-03-17T05:59:14.945Z,7.63
2023-03-17T06:02:18.319Z,6.57
2023-03-17T06:05:23.865Z,6.63
2023-03-17T06:08:26.892Z,6.57
2023-03-17T06:11:30.331Z,7.20
2023-03-17T06:14:34.860Z,6.57
2023-03-17T06:17:38.456Z,6.77
2023-03-17T06:20:41.566Z,6.90
2023-03-17T06:23:44.569Z,6.87
2023-03-17T06:26:47.561Z,7.53
2023-03-17T06:29:51.812Z,6.80
2023-03-17T06:32:55.282Z,7.10
2023-03-17T06:36:00.506Z,7.40
2023-03-17T06:39:09.537Z,6.93
2023-03-17T06:42:12.941Z,7.43
2023-03-17T06:45:17.460Z,8.03
2023-03-17T06:48:20.795Z,7.27
2023-03-17T06:51:26.038Z,7.63
2023-03-17T06:54:33.498Z,8.50
2023-03-17T06:57:43.572Z,7.23
2023-03-17T07:00:48.850Z,6.87
2023-03-17T07:03:51.983Z,6.50
2023-03-17T07:06:55.211Z,7.23
2023-03-17T07:10:01.155Z,5.93
2023-03-17T07:13:05.991Z,6.40
2023-03-17T07:16:13.935Z,6.10
2023-03-17T07:19:22.394Z,5.93
2023-03-17T07:22:26.184Z,7.27
2023-03-17T07:25:44.058Z,7.43
2023-03-17T07:29:01.377Z,6.27
2023-03-17T07:32:08.115Z,6.77
2023-03-17T07:35:11.165Z,6.50
2023-03-17T07:38:14.226Z,7.10
2023-03-17T07:41:17.712Z,6.80
2023-03-17T07:44:20.926Z,7.60
2023-03-17T07:47:25.316Z,7.20
2023-03-17T07:50:28.457Z,7.00
2023-03-17T07:53:31.558Z,6.97
2023-03-17T07:56:34.615Z,6.97
2023-03-17T07:59:38.255Z,8.07
2023-03-17T08:03:03.176Z,7.23
2023-03-17T08:06:11.514Z,7.27
2023-03-17T08:09:14.700Z,6.90
2023-03-17T08:12:17.768Z,8.87
2023-03-17T08:15:22.032Z,8.20
2023-03-17T08:18:29.414Z,8.33
2023-03-17T08:21:32.464Z,7.30
2023-03-17T08:24:35.522Z,7.10
2023-03-17T08:27:39.125Z,9.77
2023-03-17T08:30:42.480Z,8.47
2023-03-17T08:33:50.294Z,7.70
2023-03-17T08:36:53.467Z,8.00
2023-03-17T08:39:56.421Z,11.63
2023-03-17T08:42:59.351Z,7.03
2023-03-17T08:46:07.084Z,7.57
2023-03-17T08:49:12.601Z,8.63
2023-03-17T08:52:16.180Z,9.63
2023-03-17T08:55:20.286Z,14.30
2023-03-17T08:58:26.111Z,6.07
2023-03-17T09:01:29.247Z,6.93
2023-03-17T09:04:33.905Z,6.87
2023-03-17T09:07:37.566Z,7.13
2023-03-17T09:10:42.500Z,6.60
2023-03-17T09:13:49.195Z,6.63
2023-03-17T09:16:54.953Z,5.57
2023-03-17T09:19:59.450Z,5.60
2023-03-17T09:23:07.842Z,6.60
2023-03-17T09:26:11.095Z,6.27
2023-03-17T09:29:15.635Z,6.70
2023-03-17T09:32:18.789Z,5.63
2023-03-17T09:35:23.268Z,5.40
2023-03-17T09:38:28.993Z,5.37
2023-03-17T09:42:02.439Z,6.50
2023-03-17T09:45:20.237Z,5.97
2023-03-17T09:48:46.880Z,6.10
2023-03-17T09:51:54.741Z,5.63
2023-03-17T09:54:58.660Z,5.90
2023-03-17T09:58:03.456Z,5.60
2023-03-17T10:01:08.002Z,6.10
2023-03-17T10:04:12.519Z,5.33
2023-03-17T10:07:26.017Z,5.50
2023-03-17T10:10:37.429Z,5.40
2023-03-17T10:13:54.824Z,5.53
2023-03-17T10:17:04.512Z,5.17
2023-03-17T10:20:17.235Z,5.20
2023-03-17T10:23:27.161Z,5.33
2023-03-17T10:26:34.964Z,5.63
2023-03-17T10:29:38.314Z,5.47
2023-03-17T10:32:42.110Z,4.33
2023-03-17T10:35:45.531Z,4.77
2023-03-17T10:38:54.804Z,4.63
2023-03-17T10:42:00.358Z,4.63
2023-03-17T10:45:13.183Z,4.60
2023-03-17T10:48:20.621Z,5.07
2023-03-17T10:51:35.399Z,5.33
2023-03-17T10:54:42.878Z,4.90
2023-03-17T10:57:54.588Z,5.17
2023-03-17T11:01:00.886Z,4.83
2023-03-17T11:04:20.646Z,4.53
2023-03-17T11:07:34.512Z,4.70
2023-03-17T11:10:41.623Z,4.43
2023-03-17T11:13:44.966Z,4.60
2023-03-17T11:16:55.178Z,4.57
2023-03-17T11:20:12.868Z,4.33
2023-03-17T11:23:42.469Z,4.37
2023-03-17T11:26:57.561Z,4.73
2023-03-17T11:30:30.345Z,4.87
2023-03-17T11:33:37.429Z,4.30
2023-03-17T11:36:50.537Z,3.70
2023-03-17T11:43:34.880Z,4.30
2023-03-17T11:46:44.119Z,4.37
2023-03-17T11:49:54.127Z,4.10
2023-03-17T11:53:18.472Z,4.60
2023-03-17T11:56:26.154Z,4.33
2023-03-17T11:59:38.403Z,4.90
2023-03-17T12:02:47.509Z,4.57
2023-03-17T12:05:55.607Z,4.33
2023-03-17T12:09:01.937Z,4.23
2023-03-17T12:12:06.916Z,4.10
2023-03-17T12:15:22.305Z,4.47
2023-03-17T12:18:31.204Z,4.07
2023-03-17T12:21:42.142Z,4.40
2023-03-17T12:24:51.748Z,4.47
2023-03-17T12:28:02.370Z,3.93
2023-03-17T12:31:09.082Z,4.13
2023-03-17T12:34:21.738Z,4.47
2023-03-17T12:37:27.643Z,4.17
2023-03-17T12:40:37.077Z,3.70
2023-03-17T12:43:52.209Z,3.50
2023-03-17T12:47:21.765Z,4.00
2023-03-17T12:51:07.601Z,3.97
2023-03-17T12:54:16.245Z,3.70
2023-03-17T12:57:22.137Z,3.90
2023-03-17T13:00:29.532Z,3.80
2023-03-17T13:03:38.407Z,3.30
2023-03-17T13:06:45.657Z,3.70
2023-03-17T13:09:53.041Z,3.53
2023-03-17T13:13:12.030Z,4.17
2023-03-17T13:16:33.793Z,4.23
2023-03-17T13:19:56.787Z,4.10
2023-03-17T13:23:11.267Z,4.00
2023-03-17T13:26:16.636Z,4.30
2023-03-17T13:29:40.917Z,4.07
2023-03-17T13:32:44.248Z,3.53
2023-03-17T13:36:07.363Z,3.53
2023-03-17T13:39:48.663Z,3.77
2023-03-17T13:43:12.991Z,4.23
2023-03-17T13:46:24.335Z,4.03
2023-03-17T13:49:32.109Z,4.37
2023-03-17T13:52:43.266Z,3.50
2023-03-17T13:56:11.959Z,3.43
2023-03-17T13:59:18.680Z,3.80
2023-03-17T14:02:40.144Z,3.40
2023-03-17T14:05:47.985Z,4.00
2023-03-17T14:08:58.385Z,3.30
2023-03-17T14:12:07.692Z,3.80
2023-03-17T14:15:21.335Z,3.47
2023-03-17T14:18:33.324Z,3.50
2023-03-17T14:21:36.517Z,3.03
2023-03-17T14:24:41.124Z,3.47
2023-03-17T14:27:46.446Z,4.13
2023-03-17T14:30:55.468Z,3.87
2023-03-17T14:34:00.896Z,3.87
2023-03-17T14:37:05.724Z,4.20
2023-03-17T14:40:23.221Z,3.90
2023-03-17T14:43:26.350Z,3.90
2023-03-17T14:46:34.625Z,3.97
2023-03-17T14:49:37.615Z,3.33
2023-03-17T14:52:41.242Z,3.77
2023-03-17T14:55:46.542Z,3.97
2023-03-17T14:58:53.401Z,4.03
2023-03-17T15:01:58.956Z,3.60
2023-03-17T15:05:21.217Z,4.00
2023-03-17T15:08:45.957Z,3.90
2023-03-17T15:11:50.558Z,3.80
2023-03-17T15:14:57.461Z,4.27
2023-03-17T15:18:04.982Z,4.00
2023-03-17T15:21:29.796Z,4.37
2023-03-17T15:24:39.869Z,4.10
2023-03-17T15:27:45.079Z,3.73
2023-03-17T15:30:50.730Z,3.93
2023-03-17T15:33:54.003Z,3.63
2023-03-17T15:36:59.421Z,3.27
2023-03-17T15:40:05.437Z,7.73
2023-03-17T15:43:14.847Z,6.73
2023-03-17T15:46:24.799Z,5.53
2023-03-17T15:49:27.877Z,4.23
2023-03-17T15:52:30.886Z,3.83
2023-03-17T15:55:34.070Z,4.97
2023-03-17T15:58:38.622Z,4.00
2023-03-17T16:01:41.931Z,4.53
2023-03-17T16:04:44.914Z,4.03
2023-03-17T16:07:47.986Z,4.10
2023-03-17T16:10:53.052Z,4.80
2023-03-17T16:13:59.089Z,5.00
2023-03-17T16:17:02.286Z,4.60
2023-03-17T16:20:06.267Z,4.67
2023-03-17T16:23:16.422Z,4.83
2023-03-17T16:26:19.374Z,4.10
2023-03-17T16:29:23.671Z,4.37
2023-03-17T16:32:26.782Z,4.30
2023-03-17T16:35:30.715Z,4.57
2023-03-17T16:38:35.479Z,3.87
2023-03-17T16:41:38.495Z,5.27
2023-03-17T16:44:42.811Z,4.30
2023-03-17T16:47:46.060Z,4.03
2023-03-17T16:50:49.411Z,4.50
2023-03-17T16:53:52.498Z,4.20
2023-03-17T16:56:55.818Z,4.77
2023-03-17T17:00:00.251Z,4.50
2023-03-17T17:03:03.314Z,4.53
2023-03-17T17:06:12.245Z,4.20
2023-03-17T17:09:17.469Z,4.70
2023-03-17T17:12:20.414Z,4.60
2023-03-17T17:15:25.669Z,4.20
2023-03-17T17:18:31.273Z,4.87
2023-03-17T17:21:34.300Z,4.77
2023-03-17T17:24:37.259Z,5.13
2023-03-17T17:27:42.487Z,5.33
2023-03-17T17:30:48.025Z,5.20
2023-03-17T17:33:50.981Z,4.63
2023-03-17T17:36:54.097Z,6.07
2023-03-17T17:39:57.153Z,6.00
2023-03-17T17:43:00.510Z,5.57
2023-03-17T17:46:05.157Z,5.73
2023-03-17T17:49:08.918Z,5.67
2023-03-17T17:52:11.955Z,5.77
2023-03-17T17:55:14.989Z,9.17
2023-03-17T17:58:20.394Z,13.30
2023-03-17T18:01:24.958Z,12.33
2023-03-17T18:04:28.042Z,7.77
2023-03-17T18:07:31.188Z,5.80
2023-03-17T18:10:35.074Z,5.80
2023-03-17T18:13:38.997Z,5.77
2023-03-17T18:16:43.375Z,6.00
2023-03-17T18:19:46.321Z,5.97
2023-03-17T18:22:50.240Z,6.23
2023-03-17T18:26:00.753Z,5.97
2023-03-17T18:29:03.858Z,6.37
2023-03-17T18:32:09.183Z,6.80
2023-03-17T18:35:17.277Z,7.60
2023-03-17T18:38:20.302Z,7.27
2023-03-17T18:41:24.287Z,7.10
2023-03-17T18:44:27.313Z,5.97
2023-03-17T18:47:31.553Z,6.37
2023-03-17T18:50:34.851Z,7.00
2023-03-17T18:53:39.178Z,5.37
2023-03-17T18:56:42.174Z,5.73
2023-03-17T18:59:45.281Z,5.80
2023-03-17T19:02:49.839Z,5.60
2023-03-17T19:05:53.205Z,6.80
2023-03-17T19:08:57.268Z,6.40
2023-03-17T19:12:00.230Z,5.63
2023-03-17T19:15:04.192Z,5.50
2023-03-17T19:18:09.685Z,6.30
2023-03-17T19:21:14.479Z,5.83
2023-03-17T19:24:17.577Z,6.07
2023-03-17T19:27:20.767Z,5.70
2023-03-17T19:30:23.781Z,7.07
2023-03-17T19:33:29.124Z,7.77
2023-03-17T19:36:37.601Z,6.10
2023-03-17T19:39:44.144Z,6.90
2023-03-17T19:42:47.201Z,6.03
2023-03-17T19:45:50.243Z,7.00
2023-03-17T19:48:56.488Z,7.23
2023-03-17T19:51:59.579Z,8.43
2023-03-17T19:55:04.588Z,6.83
2023-03-17T19:58:11.701Z,9.43
2023-03-17T20:01:15.279Z,9.47
2023-03-17T20:04:21.795Z,10.77
2023-03-17T20:07:24.872Z,8.57
2023-03-17T20:10:27.897Z,8.10
2023-03-17T20:13:30.852Z,8.33
2023-03-17T20:16:36.162Z,8.20
2023-03-17T20:19:40.529Z,8.77
2023-03-17T20:22:43.902Z,8.90
2023-03-17T20:25:46.939Z,7.83
2023-03-17T20:28:50.739Z,10.73
2023-03-17T20:31:54.016Z,8.87
2023-03-17T20:34:58.554Z,9.00
2023-03-17T20:38:02.144Z,15.53
2023-03-17T20:41:08.012Z,12.40
2023-03-17T20:44:10.940Z,13.23
2023-03-17T20:47:14.388Z,16.30
2023-03-17T20:50:19.085Z,9.87
2023-03-17T20:53:23.266Z,8.87
2023-03-17T20:56:28.424Z,8.00
2023-03-17T20:59:31.515Z,8.53
2023-03-17T21:02:34.757Z,7.80
2023-03-17T21:05:39.450Z,8.13
2023-03-17T21:08:42.475Z,8.53
2023-03-17T21:11:45.656Z,8.27
2023-03-17T21:14:50.637Z,8.23
2023-03-17T21:17:53.710Z,8.13
2023-03-17T21:20:58.235Z,8.00
2023-03-17T21:24:02.177Z,8.67
2023-03-17T21:27:09.551Z,8.23
2023-03-17T21:30:15.720Z,7.20
2023-03-17T21:33:19.324Z,8.63
2023-03-17T21:36:26.678Z,8.30
2023-03-17T21:39:30.427Z,8.63
2023-03-17T21:42:33.516Z,8.13
2023-03-17T21:45:37.136Z,8.43
2023-03-17T21:48:40.139Z,7.77
2023-03-17T21:51:46.318Z,7.93
2023-03-17T21:54:50.334Z,7.80
2023-03-17T21:57:53.740Z,8.30
2023-03-17T22:00:57.023Z,7.93
2023-03-17T22:04:00.498Z,8.03
2023-03-17T22:07:05.276Z,8.93
2023-03-17T22:10:09.977Z,8.07
2023-03-17T22:13:12.948Z,8.37
2023-03-17T22:16:20.230Z,7.77
2023-03-17T22:19:23.411Z,8.80
2023-03-17T22:22:29.129Z,7.80
2023-03-17T22:25:32.082Z,8.27
2023-03-17T22:28:35.349Z,7.83
2023-03-17T22:31:38.324Z,7.70
2023-03-17T22:34:41.357Z,7.73
2023-03-17T22:37:45.934Z,8.33
2023-03-17T22:40:48.914Z,7.90
2023-03-17T22:43:52.638Z,8.23
2023-03-17T22:46:56.207Z,8.83
2023-03-17T22:49:59.185Z,9.10
2023-03-17T22:53:03.473Z,8.40
2023-03-17T22:56:07.840Z,8.37
2023-03-17T22:59:11.387Z,8.63
2023-03-17T23:02:15.792Z,8.20
2023-03-17T23:10:41.725Z,8.20
2023-03-17T23:13:45.415Z,8.70
2023-03-17T23:16:48.695Z,7.73
2023-03-17T23:19:51.738Z,8.47
2023-03-17T23:22:54.787Z,8.13
2023-03-17T23:25:59.458Z,8.60
2023-03-17T23:29:02.455Z,8.67
2023-03-17T23:32:06.641Z,8.03
2023-03-17T23:35:10.956Z,7.60
2023-03-17T23:38:14.029Z,7.13
2023-03-17T23:41:18.407Z,7.30
2023-03-17T23:44:21.579Z,7.50
2023-03-17T23:47:24.706Z,8.27
2023-03-17T23:50:27.863Z,7.63
2023-03-17T23:53:31.369Z,7.83
2023-03-17T23:56:35.827Z,8.07
2023-03-17T23:59:38.764Z,7.50
